sensor_id;sensor_type;location;lat;lon;timestamp;temperature;humidity
35559;DHT22;21661;50.794;-1.066;2024-03-17T00:00:02;11.00;99.90
35559;DHT22;21661;50.794;-1.066;2024-03-17T00:02:28;11.00;99.90
35559;DHT22;21661;50.794;-1.066;2024-03-17T00:04:54;11.00;99.90
35559;DHT22;21661;50.794;-1.066;2024-03-17T00:07:19;11.00;99.90
35559;DHT22;21661;50.794;-1.066;2024-03-17T00:09:45;11.00;99.90
35559;DHT22;21661;50.794;-1.066;2024-03-17T00:12:12;11.00;99.90
35559;DHT22;21661;50.794;-1.066;2024-03-17T00:14:38;11.00;99.90
35559;DHT22;21661;50.794;-1.066;2024-03-17T00:17:04;11.00;99.90
35559;DHT22;21661;50.794;-1.066;2024-03-17T00:19:30;11.00;99.90
35559;DHT22;21661;50.794;-1.066;2024-03-17T00:21:55;11.00;99.90
35559;DHT22;21661;50.794;-1.066;2024-03-17T00:24:21;11.10;99.90
35559;DHT22;21661;50.794;-1.066;2024-03-17T00:26:47;11.10;99.90
35559;DHT22;21661;50.794;-1.066;2024-03-17T00:29:14;11.10;99.90
35559;DHT22;21661;50.794;-1.066;2024-03-17T00:31:40;11.10;99.90
35559;DHT22;21661;50.794;-1.066;2024-03-17T00:34:06;11.10;99.90
35559;DHT22;21661;50.794;-1.066;2024-03-17T00:36:31;11.20;99.90
35559;DHT22;21661;50.794;-1.066;2024-03-17T00:38:57;11.20;99.90
35559;DHT22;21661;50.794;-1.066;2024-03-17T00:41:23;11.10;99.90
35559;DHT22;21661;50.794;-1.066;2024-03-17T00:43:49;11.20;99.90
35559;DHT22;21661;50.794;-1.066;2024-03-17T00:46:16;11.20;99.90
35559;DHT22;21661;50.794;-1.066;2024-03-17T00:48:43;11.20;99.90
35559;DHT22;21661;50.794;-1.066;2024-03-17T00:51:09;11.20;99.90
35559;DHT22;21661;50.794;-1.066;2024-03-17T00:53:35;11.20;99.90
35559;DHT22;21661;50.794;-1.066;2024-03-17T00:56:00;11.20;99.90
35559;DHT22;21661;50.794;-1.066;2024-03-17T00:58:27;11.20;99.90
35559;DHT22;21661;50.794;-1.066;2024-03-17T01:00:52;11.20;99.90
35559;DHT22;21661;50.794;-1.066;2024-03-17T01:03:18;11.20;99.90
35559;DHT22;21661;50.794;-1.066;2024-03-17T01:05:44;11.20;99.90
35559;DHT22;21661;50.794;-1.066;2024-03-17T01:08:13;11.20;99.90
35559;DHT22;21661;50.794;-1.066;2024-03-17T01:10:40;11.20;99.90
35559;DHT22;21661;50.794;-1.066;2024-03-17T01:13:06;11.20;99.90
35559;DHT22;21661;50.794;-1.066;2024-03-17T01:15:33;11.10;99.90
35559;DHT22;21661;50.794;-1.066;2024-03-17T01:17:59;11.20;99.90
35559;DHT22;21661;50.794;-1.066;2024-03-17T01:20:28;11.10;99.90
35559;DHT22;21661;50.794;-1.066;2024-03-17T01:22:54;11.10;99.90
35559;DHT22;21661;50.794;-1.066;2024-03-17T01:25:20;11.10;99.90
35559;DHT22;21661;50.794;-1.066;2024-03-17T01:27:45;11.20;99.90
35559;DHT22;21661;50.794;-1.066;2024-03-17T01:30:11;11.20;99.90
35559;DHT22;21661;50.794;-1.066;2024-03-17T01:32:37;11.20;99.90
35559;DHT22;21661;50.794;-1.066;2024-03-17T01:35:03;11.30;99.90
35559;DHT22;21661;50.794;-1.066;2024-03-17T01:37:29;11.30;99.90
35559;DHT22;21661;50.794;-1.066;2024-03-17T01:39:58;11.30;99.90
35559;DHT22;21661;50.794;-1.066;2024-03-17T01:42:23;11.30;99.90
35559;DHT22;21661;50.794;-1.066;2024-03-17T01:44:49;11.30;99.90
35559;DHT22;21661;50.794;-1.066;2024-03-17T01:47:19;11.30;99.90
35559;DHT22;21661;50.794;-1.066;2024-03-17T01:49:48;11.30;99.90
35559;DHT22;21661;50.794;-1.066;2024-03-17T01:52:15;11.30;99.90
35559;DHT22;21661;50.794;-1.066;2024-03-17T01:54:42;11.30;99.90
35559;DHT22;21661;50.794;-1.066;2024-03-17T01:57:09;11.30;99.90
35559;DHT22;21661;50.794;-1.066;2024-03-17T01:59:35;11.30;99.90
35559;DHT22;21661;50.794;-1.066;2024-03-17T02:02:02;11.30;99.90
35559;DHT22;21661;50.794;-1.066;2024-03-17T02:04:28;11.30;99.90
35559;DHT22;21661;50.794;-1.066;2024-03-17T02:06:53;11.30;99.90
35559;DHT22;21661;50.794;-1.066;2024-03-17T02:09:19;11.30;99.90
35559;DHT22;21661;50.794;-1.066;2024-03-17T02:11:47;11.30;99.90
35559;DHT22;21661;50.794;-1.066;2024-03-17T02:14:13;11.30;99.90
35559;DHT22;21661;50.794;-1.066;2024-03-17T02:16:42;11.30;99.90
35559;DHT22;21661;50.794;-1.066;2024-03-17T02:19:08;11.30;99.90
35559;DHT22;21661;50.794;-1.066;2024-03-17T02:21:34;11.30;99.90
35559;DHT22;21661;50.794;-1.066;2024-03-17T02:24:00;11.30;99.90
35559;DHT22;21661;50.794;-1.066;2024-03-17T02:26:27;11.30;99.90
35559;DHT22;21661;50.794;-1.066;2024-03-17T02:28:53;11.30;99.90
35559;DHT22;21661;50.794;-1.066;2024-03-17T02:31:19;11.40;99.90
35559;DHT22;21661;50.794;-1.066;2024-03-17T02:33:45;11.40;99.90
35559;DHT22;21661;50.794;-1.066;2024-03-17T02:36:11;11.40;99.90
35559;DHT22;21661;50.794;-1.066;2024-03-17T02:38:41;11.40;99.90
35559;DHT22;21661;50.794;-1.066;2024-03-17T02:41:26;11.40;99.90
35559;DHT22;21661;50.794;-1.066;2024-03-17T02:43:52;11.30;99.90
35559;DHT22;21661;50.794;-1.066;2024-03-17T02:46:18;11.30;99.90
35559;DHT22;21661;50.794;-1.066;2024-03-17T02:48:49;11.30;99.90
35559;DHT22;21661;50.794;-1.066;2024-03-17T02:51:19;11.30;99.90
35559;DHT22;21661;50.794;-1.066;2024-03-17T02:53:46;11.30;99.90
35559;DHT22;21661;50.794;-1.066;2024-03-17T02:56:12;11.30;99.90
35559;DHT22;21661;50.794;-1.066;2024-03-17T02:58:39;11.30;99.90
35559;DHT22;21661;50.794;-1.066;2024-03-17T03:01:06;11.30;99.90
35559;DHT22;21661;50.794;-1.066;2024-03-17T03:03:33;11.20;99.90
35559;DHT22;21661;50.794;-1.066;2024-03-17T03:05:58;11.30;99.90
35559;DHT22;21661;50.794;-1.066;2024-03-17T03:08:26;11.30;99.90
35559;DHT22;21661;50.794;-1.066;2024-03-17T03:10:52;11.30;99.90
35559;DHT22;21661;50.794;-1.066;2024-03-17T03:13:18;11.30;99.90
35559;DHT22;21661;50.794;-1.066;2024-03-17T03:15:46;11.30;99.90
35559;DHT22;21661;50.794;-1.066;2024-03-17T03:18:13;11.30;99.90
35559;DHT22;21661;50.794;-1.066;2024-03-17T03:20:39;11.30;99.90
35559;DHT22;21661;50.794;-1.066;2024-03-17T03:23:05;11.30;99.90
35559;DHT22;21661;50.794;-1.066;2024-03-17T03:25:31;11.30;99.90
35559;DHT22;21661;50.794;-1.066;2024-03-17T03:27:57;11.30;99.90
35559;DHT22;21661;50.794;-1.066;2024-03-17T03:30:24;11.30;99.90
35559;DHT22;21661;50.794;-1.066;2024-03-17T03:32:50;11.30;99.90
35559;DHT22;21661;50.794;-1.066;2024-03-17T03:35:15;11.30;99.90
35559;DHT22;21661;50.794;-1.066;2024-03-17T03:37:41;11.30;99.90
35559;DHT22;21661;50.794;-1.066;2024-03-17T03:40:08;11.30;99.90
35559;DHT22;21661;50.794;-1.066;2024-03-17T03:42:43;11.30;99.90
35559;DHT22;21661;50.794;-1.066;2024-03-17T03:45:10;11.20;99.90
35559;DHT22;21661;50.794;-1.066;2024-03-17T03:47:42;11.20;99.90
35559;DHT22;21661;50.794;-1.066;2024-03-17T03:50:11;11.20;99.90
35559;DHT22;21661;50.794;-1.066;2024-03-17T03:52:37;11.30;99.90
35559;DHT22;21661;50.794;-1.066;2024-03-17T03:55:04;11.30;99.90
35559;DHT22;21661;50.794;-1.066;2024-03-17T03:57:33;11.40;99.90
35559;DHT22;21661;50.794;-1.066;2024-03-17T04:00:00;11.40;99.90
35559;DHT22;21661;50.794;-1.066;2024-03-17T04:02:26;11.40;99.90
35559;DHT22;21661;50.794;-1.066;2024-03-17T04:04:57;11.40;99.90
35559;DHT22;21661;50.794;-1.066;2024-03-17T04:07:23;11.40;99.90
35559;DHT22;21661;50.794;-1.066;2024-03-17T04:09:49;11.40;99.90
35559;DHT22;21661;50.794;-1.066;2024-03-17T04:12:15;11.40;99.90
35559;DHT22;21661;50.794;-1.066;2024-03-17T04:14:40;11.40;99.90
35559;DHT22;21661;50.794;-1.066;2024-03-17T04:17:06;11.50;99.90
35559;DHT22;21661;50.794;-1.066;2024-03-17T04:19:32;11.50;99.90
35559;DHT22;21661;50.794;-1.066;2024-03-17T04:21:57;11.50;99.90
35559;DHT22;21661;50.794;-1.066;2024-03-17T04:24:23;11.50;99.90
35559;DHT22;21661;50.794;-1.066;2024-03-17T04:26:48;11.50;99.90
35559;DHT22;21661;50.794;-1.066;2024-03-17T04:29:14;11.50;99.90
35559;DHT22;21661;50.794;-1.066;2024-03-17T04:31:40;11.40;99.90
35559;DHT22;21661;50.794;-1.066;2024-03-17T04:34:07;11.40;99.90
35559;DHT22;21661;50.794;-1.066;2024-03-17T04:36:33;11.40;99.90
35559;DHT22;21661;50.794;-1.066;2024-03-17T04:38:58;11.40;99.90
35559;DHT22;21661;50.794;-1.066;2024-03-17T04:41:24;11.40;99.90
35559;DHT22;21661;50.794;-1.066;2024-03-17T04:43:49;11.40;99.90
35559;DHT22;21661;50.794;-1.066;2024-03-17T04:46:15;11.40;99.90
35559;DHT22;21661;50.794;-1.066;2024-03-17T04:48:41;11.40;99.90
35559;DHT22;21661;50.794;-1.066;2024-03-17T04:51:07;11.40;99.90
35559;DHT22;21661;50.794;-1.066;2024-03-17T04:53:32;11.40;99.90
35559;DHT22;21661;50.794;-1.066;2024-03-17T04:56:03;11.40;99.90
35559;DHT22;21661;50.794;-1.066;2024-03-17T04:58:31;11.40;99.90
35559;DHT22;21661;50.794;-1.066;2024-03-17T05:00:56;11.30;99.90
35559;DHT22;21661;50.794;-1.066;2024-03-17T05:03:22;11.40;99.90
35559;DHT22;21661;50.794;-1.066;2024-03-17T05:05:48;11.30;99.90
35559;DHT22;21661;50.794;-1.066;2024-03-17T05:08:13;11.30;99.90
35559;DHT22;21661;50.794;-1.066;2024-03-17T05:10:39;11.30;99.90
35559;DHT22;21661;50.794;-1.066;2024-03-17T05:13:05;11.30;99.90
35559;DHT22;21661;50.794;-1.066;2024-03-17T05:15:30;11.30;99.90
35559;DHT22;21661;50.794;-1.066;2024-03-17T05:17:56;11.30;99.90
35559;DHT22;21661;50.794;-1.066;2024-03-17T05:20:22;11.20;99.90
35559;DHT22;21661;50.794;-1.066;2024-03-17T05:22:49;11.20;99.90
35559;DHT22;21661;50.794;-1.066;2024-03-17T05:25:15;11.20;99.90
35559;DHT22;21661;50.794;-1.066;2024-03-17T05:27:40;11.20;99.90
35559;DHT22;21661;50.794;-1.066;2024-03-17T05:30:06;11.20;99.90
35559;DHT22;21661;50.794;-1.066;2024-03-17T05:32:34;11.10;99.90
35559;DHT22;21661;50.794;-1.066;2024-03-17T05:35:00;11.20;99.90
35559;DHT22;21661;50.794;-1.066;2024-03-17T05:37:25;11.10;99.90
35559;DHT22;21661;50.794;-1.066;2024-03-17T05:39:53;11.20;99.90
35559;DHT22;21661;50.794;-1.066;2024-03-17T05:42:19;11.10;99.90
35559;DHT22;21661;50.794;-1.066;2024-03-17T05:44:45;11.20;99.90
35559;DHT22;21661;50.794;-1.066;2024-03-17T05:47:18;11.20;99.90
35559;DHT22;21661;50.794;-1.066;2024-03-17T05:49:44;11.20;99.90
35559;DHT22;21661;50.794;-1.066;2024-03-17T05:52:11;11.20;99.90
35559;DHT22;21661;50.794;-1.066;2024-03-17T05:54:37;11.20;99.90
35559;DHT22;21661;50.794;-1.066;2024-03-17T05:57:03;11.10;99.90
35559;DHT22;21661;50.794;-1.066;2024-03-17T05:59:30;11.20;99.90
35559;DHT22;21661;50.794;-1.066;2024-03-17T06:01:56;11.20;99.90
35559;DHT22;21661;50.794;-1.066;2024-03-17T06:04:22;11.20;99.90
35559;DHT22;21661;50.794;-1.066;2024-03-17T06:06:49;11.20;99.90
35559;DHT22;21661;50.794;-1.066;2024-03-17T06:09:15;11.20;99.90
35559;DHT22;21661;50.794;-1.066;2024-03-17T06:11:43;11.20;99.90
35559;DHT22;21661;50.794;-1.066;2024-03-17T06:14:09;11.20;99.90
35559;DHT22;21661;50.794;-1.066;2024-03-17T06:16:37;11.10;99.90
35559;DHT22;21661;50.794;-1.066;2024-03-17T06:19:03;11.10;99.90
35559;DHT22;21661;50.794;-1.066;2024-03-17T06:21:29;11.10;99.90
35559;DHT22;21661;50.794;-1.066;2024-03-17T06:23:54;11.10;99.90
35559;DHT22;21661;50.794;-1.066;2024-03-17T06:26:20;11.10;99.90
35559;DHT22;21661;50.794;-1.066;2024-03-17T06:28:49;11.10;99.90
35559;DHT22;21661;50.794;-1.066;2024-03-17T06:31:14;11.10;99.90
35559;DHT22;21661;50.794;-1.066;2024-03-17T06:33:41;11.10;99.90
35559;DHT22;21661;50.794;-1.066;2024-03-17T06:36:07;11.10;99.90
35559;DHT22;21661;50.794;-1.066;2024-03-17T06:38:33;11.00;99.90
35559;DHT22;21661;50.794;-1.066;2024-03-17T06:40:59;11.10;99.90
35559;DHT22;21661;50.794;-1.066;2024-03-17T06:43:24;11.00;99.90
35559;DHT22;21661;50.794;-1.066;2024-03-17T06:45:57;11.10;99.90
35559;DHT22;21661;50.794;-1.066;2024-03-17T06:48:24;11.10;99.90
35559;DHT22;21661;50.794;-1.066;2024-03-17T06:50:50;11.10;99.90
35559;DHT22;21661;50.794;-1.066;2024-03-17T06:53:23;11.10;99.90
35559;DHT22;21661;50.794;-1.066;2024-03-17T06:55:56;11.10;99.90
35559;DHT22;21661;50.794;-1.066;2024-03-17T06:58:22;11.10;99.90
35559;DHT22;21661;50.794;-1.066;2024-03-17T07:00:59;11.10;99.90
35559;DHT22;21661;50.794;-1.066;2024-03-17T07:03:29;11.10;99.90
35559;DHT22;21661;50.794;-1.066;2024-03-17T07:05:56;11.10;99.90
35559;DHT22;21661;50.794;-1.066;2024-03-17T07:08:23;11.10;99.90
35559;DHT22;21661;50.794;-1.066;2024-03-17T07:11:15;11.10;99.90
35559;DHT22;21661;50.794;-1.066;2024-03-17T07:13:42;11.10;99.90
35559;DHT22;21661;50.794;-1.066;2024-03-17T07:16:08;11.10;99.90
35559;DHT22;21661;50.794;-1.066;2024-03-17T07:18:35;11.10;99.90
35559;DHT22;21661;50.794;-1.066;2024-03-17T07:21:03;11.10;99.90
35559;DHT22;21661;50.794;-1.066;2024-03-17T07:23:34;11.10;99.90
35559;DHT22;21661;50.794;-1.066;2024-03-17T07:26:01;11.10;99.90
35559;DHT22;21661;50.794;-1.066;2024-03-17T07:28:27;11.10;99.90
35559;DHT22;21661;50.794;-1.066;2024-03-17T07:30:55;11.10;99.90
35559;DHT22;21661;50.794;-1.066;2024-03-17T07:33:21;11.10;99.90
35559;DHT22;21661;50.794;-1.066;2024-03-17T07:35:52;11.10;99.90
35559;DHT22;21661;50.794;-1.066;2024-03-17T07:38:18;11.10;99.90
35559;DHT22;21661;50.794;-1.066;2024-03-17T07:40:45;11.10;99.90
35559;DHT22;21661;50.794;-1.066;2024-03-17T07:43:11;11.10;99.90
35559;DHT22;21661;50.794;-1.066;2024-03-17T07:45:37;11.10;99.90
35559;DHT22;21661;50.794;-1.066;2024-03-17T07:48:03;11.10;99.90
35559;DHT22;21661;50.794;-1.066;2024-03-17T07:50:29;11.10;99.90
35559;DHT22;21661;50.794;-1.066;2024-03-17T07:52:54;11.20;99.90
35559;DHT22;21661;50.794;-1.066;2024-03-17T07:55:20;11.20;99.90
35559;DHT22;21661;50.794;-1.066;2024-03-17T07:57:45;11.20;99.90
35559;DHT22;21661;50.794;-1.066;2024-03-17T08:00:11;11.20;99.90
35559;DHT22;21661;50.794;-1.066;2024-03-17T08:02:46;11.20;99.90
35559;DHT22;21661;50.794;-1.066;2024-03-17T08:05:11;11.20;99.90
35559;DHT22;21661;50.794;-1.066;2024-03-17T08:07:37;11.20;99.90
35559;DHT22;21661;50.794;-1.066;2024-03-17T08:10:03;11.30;99.90
35559;DHT22;21661;50.794;-1.066;2024-03-17T08:12:29;11.30;99.90
35559;DHT22;21661;50.794;-1.066;2024-03-17T08:14:55;11.30;99.90
35559;DHT22;21661;50.794;-1.066;2024-03-17T08:17:20;11.30;99.90
35559;DHT22;21661;50.794;-1.066;2024-03-17T08:19:46;11.30;99.90
35559;DHT22;21661;50.794;-1.066;2024-03-17T08:22:13;11.30;99.90
35559;DHT22;21661;50.794;-1.066;2024-03-17T08:24:39;11.30;99.90
35559;DHT22;21661;50.794;-1.066;2024-03-17T08:27:04;11.30;99.90
35559;DHT22;21661;50.794;-1.066;2024-03-17T08:29:30;11.40;99.90
35559;DHT22;21661;50.794;-1.066;2024-03-17T08:31:56;11.30;99.90
35559;DHT22;21661;50.794;-1.066;2024-03-17T08:34:21;11.40;99.90
35559;DHT22;21661;50.794;-1.066;2024-03-17T08:36:47;11.40;99.90
35559;DHT22;21661;50.794;-1.066;2024-03-17T08:39:12;11.40;99.90
35559;DHT22;21661;50.794;-1.066;2024-03-17T08:41:39;11.40;99.90
35559;DHT22;21661;50.794;-1.066;2024-03-17T08:44:04;11.40;99.90
35559;DHT22;21661;50.794;-1.066;2024-03-17T08:46:31;11.40;99.90
35559;DHT22;21661;50.794;-1.066;2024-03-17T08:48:57;11.40;99.90
35559;DHT22;21661;50.794;-1.066;2024-03-17T08:51:23;11.40;99.90
35559;DHT22;21661;50.794;-1.066;2024-03-17T08:53:49;11.40;99.90
35559;DHT22;21661;50.794;-1.066;2024-03-17T08:56:15;11.40;99.90
35559;DHT22;21661;50.794;-1.066;2024-03-17T08:58:40;11.50;99.90
35559;DHT22;21661;50.794;-1.066;2024-03-17T09:01:07;11.50;99.90
35559;DHT22;21661;50.794;-1.066;2024-03-17T09:03:36;11.40;99.90
35559;DHT22;21661;50.794;-1.066;2024-03-17T09:06:02;11.40;99.90
35559;DHT22;21661;50.794;-1.066;2024-03-17T09:08:27;11.50;99.90
35559;DHT22;21661;50.794;-1.066;2024-03-17T09:10:54;11.40;99.90
35559;DHT22;21661;50.794;-1.066;2024-03-17T09:13:21;11.50;99.90
35559;DHT22;21661;50.794;-1.066;2024-03-17T09:18:18;11.40;99.90
35559;DHT22;21661;50.794;-1.066;2024-03-17T09:20:44;11.50;99.90
35559;DHT22;21661;50.794;-1.066;2024-03-17T09:23:09;11.50;99.90
35559;DHT22;21661;50.794;-1.066;2024-03-17T09:25:35;11.50;99.90
35559;DHT22;21661;50.794;-1.066;2024-03-17T09:28:00;11.60;99.90
35559;DHT22;21661;50.794;-1.066;2024-03-17T09:30:26;11.70;99.90
35559;DHT22;21661;50.794;-1.066;2024-03-17T09:32:52;11.70;99.90
35559;DHT22;21661;50.794;-1.066;2024-03-17T09:35:18;11.70;99.90
35559;DHT22;21661;50.794;-1.066;2024-03-17T09:37:44;11.80;99.90
35559;DHT22;21661;50.794;-1.066;2024-03-17T09:40:18;11.80;99.90
35559;DHT22;21661;50.794;-1.066;2024-03-17T09:42:44;11.80;99.90
35559;DHT22;21661;50.794;-1.066;2024-03-17T09:45:10;11.90;99.90
35559;DHT22;21661;50.794;-1.066;2024-03-17T09:47:36;11.90;99.90
35559;DHT22;21661;50.794;-1.066;2024-03-17T09:50:02;12.00;99.90
35559;DHT22;21661;50.794;-1.066;2024-03-17T09:52:29;12.10;99.90
35559;DHT22;21661;50.794;-1.066;2024-03-17T09:55:09;12.10;99.90
35559;DHT22;21661;50.794;-1.066;2024-03-17T09:57:36;12.20;99.90
35559;DHT22;21661;50.794;-1.066;2024-03-17T10:00:09;12.20;99.90
35559;DHT22;21661;50.794;-1.066;2024-03-17T10:02:42;12.20;99.90
35559;DHT22;21661;50.794;-1.066;2024-03-17T10:05:22;12.20;99.90
35559;DHT22;21661;50.794;-1.066;2024-03-17T10:07:48;12.20;99.90
35559;DHT22;21661;50.794;-1.066;2024-03-17T10:10:18;12.30;99.90
35559;DHT22;21661;50.794;-1.066;2024-03-17T10:12:52;12.30;99.90
35559;DHT22;21661;50.794;-1.066;2024-03-17T10:15:18;12.40;99.90
35559;DHT22;21661;50.794;-1.066;2024-03-17T10:17:44;12.30;99.90
35559;DHT22;21661;50.794;-1.066;2024-03-17T10:20:21;12.30;99.90
35559;DHT22;21661;50.794;-1.066;2024-03-17T10:23:07;12.40;99.90
35559;DHT22;21661;50.794;-1.066;2024-03-17T10:25:38;12.40;99.90
35559;DHT22;21661;50.794;-1.066;2024-03-17T10:28:11;12.40;99.90
35559;DHT22;21661;50.794;-1.066;2024-03-17T10:30:37;12.50;99.90
35559;DHT22;21661;50.794;-1.066;2024-03-17T10:33:05;12.50;99.90
35559;DHT22;21661;50.794;-1.066;2024-03-17T10:35:36;12.50;99.90
35559;DHT22;21661;50.794;-1.066;2024-03-17T10:38:05;12.50;99.90
35559;DHT22;21661;50.794;-1.066;2024-03-17T10:40:32;12.60;99.90
35559;DHT22;21661;50.794;-1.066;2024-03-17T10:43:00;12.70;99.90
35559;DHT22;21661;50.794;-1.066;2024-03-17T10:45:27;12.70;99.90
35559;DHT22;21661;50.794;-1.066;2024-03-17T10:47:56;12.70;99.90
35559;DHT22;21661;50.794;-1.066;2024-03-17T10:50:24;12.70;99.90
35559;DHT22;21661;50.794;-1.066;2024-03-17T10:52:50;12.70;99.90
35559;DHT22;21661;50.794;-1.066;2024-03-17T10:55:26;12.80;99.90
35559;DHT22;21661;50.794;-1.066;2024-03-17T10:57:54;12.80;99.90
35559;DHT22;21661;50.794;-1.066;2024-03-17T11:00:23;12.90;99.90
35559;DHT22;21661;50.794;-1.066;2024-03-17T11:02:51;12.90;99.90
35559;DHT22;21661;50.794;-1.066;2024-03-17T11:05:28;12.90;99.90
35559;DHT22;21661;50.794;-1.066;2024-03-17T11:08:00;12.90;99.90
35559;DHT22;21661;50.794;-1.066;2024-03-17T11:10:29;12.90;99.90
35559;DHT22;21661;50.794;-1.066;2024-03-17T11:12:56;12.80;99.90
35559;DHT22;21661;50.794;-1.066;2024-03-17T11:22:49;12.80;99.90
35559;DHT22;21661;50.794;-1.066;2024-03-17T11:27:56;12.90;99.90
35559;DHT22;21661;50.794;-1.066;2024-03-17T11:47:01;13.10;99.90
35559;DHT22;21661;50.794;-1.066;2024-03-17T11:49:40;13.10;99.90
35559;DHT22;21661;50.794;-1.066;2024-03-17T11:52:10;13.10;99.90
35559;DHT22;21661;50.794;-1.066;2024-03-17T11:54:44;13.10;99.90
35559;DHT22;21661;50.794;-1.066;2024-03-17T11:57:11;13.10;99.90
35559;DHT22;21661;50.794;-1.066;2024-03-17T11:59:38;13.00;99.90
35559;DHT22;21661;50.794;-1.066;2024-03-17T12:02:23;13.00;99.90
35559;DHT22;21661;50.794;-1.066;2024-03-17T12:04:52;12.90;99.90
35559;DHT22;21661;50.794;-1.066;2024-03-17T12:07:20;13.00;99.90
35559;DHT22;21661;50.794;-1.066;2024-03-17T12:09:47;13.10;99.90
35559;DHT22;21661;50.794;-1.066;2024-03-17T12:12:27;13.20;99.90
35559;DHT22;21661;50.794;-1.066;2024-03-17T12:15:03;13.30;99.90
35559;DHT22;21661;50.794;-1.066;2024-03-17T12:17:31;13.30;99.90
35559;DHT22;21661;50.794;-1.066;2024-03-17T12:19:56;13.40;99.90
35559;DHT22;21661;50.794;-1.066;2024-03-17T12:22:23;13.30;99.90
35559;DHT22;21661;50.794;-1.066;2024-03-17T12:24:53;13.40;99.90
35559;DHT22;21661;50.794;-1.066;2024-03-17T12:27:23;13.40;99.90
35559;DHT22;21661;50.794;-1.066;2024-03-17T12:29:51;13.50;99.90
35559;DHT22;21661;50.794;-1.066;2024-03-17T12:32:19;13.60;99.90
35559;DHT22;21661;50.794;-1.066;2024-03-17T12:34:46;13.60;99.90
35559;DHT22;21661;50.794;-1.066;2024-03-17T12:37:19;13.80;99.90
35559;DHT22;21661;50.794;-1.066;2024-03-17T12:39:46;13.80;99.90
35559;DHT22;21661;50.794;-1.066;2024-03-17T12:42:13;13.80;99.90
35559;DHT22;21661;50.794;-1.066;2024-03-17T12:44:47;14.10;99.90
35559;DHT22;21661;50.794;-1.066;2024-03-17T12:47:18;14.20;99.90
35559;DHT22;21661;50.794;-1.066;2024-03-17T12:49:57;14.20;99.90
35559;DHT22;21661;50.794;-1.066;2024-03-17T12:52:26;14.20;99.90
35559;DHT22;21661;50.794;-1.066;2024-03-17T12:55:01;14.20;99.90
35559;DHT22;21661;50.794;-1.066;2024-03-17T12:57:47;14.10;99.90
35559;DHT22;21661;50.794;-1.066;2024-03-17T13:00:32;14.10;99.90
35559;DHT22;21661;50.794;-1.066;2024-03-17T13:02:58;14.20;99.90
35559;DHT22;21661;50.794;-1.066;2024-03-17T13:05:24;14.30;99.90
35559;DHT22;21661;50.794;-1.066;2024-03-17T13:07:50;14.30;99.90
35559;DHT22;21661;50.794;-1.066;2024-03-17T13:10:17;14.30;99.90
35559;DHT22;21661;50.794;-1.066;2024-03-17T13:12:44;14.30;99.90
35559;DHT22;21661;50.794;-1.066;2024-03-17T13:17:43;14.30;99.90
35559;DHT22;21661;50.794;-1.066;2024-03-17T13:20:14;14.30;99.90
35559;DHT22;21661;50.794;-1.066;2024-03-17T13:22:44;14.40;99.90
35559;DHT22;21661;50.794;-1.066;2024-03-17T13:25:17;14.40;99.90
35559;DHT22;21661;50.794;-1.066;2024-03-17T13:27:46;14.50;99.90
35559;DHT22;21661;50.794;-1.066;2024-03-17T13:30:17;14.50;99.90
35559;DHT22;21661;50.794;-1.066;2024-03-17T13:32:43;14.50;99.90
35559;DHT22;21661;50.794;-1.066;2024-03-17T13:35:19;14.60;99.90
35559;DHT22;21661;50.794;-1.066;2024-03-17T13:37:45;14.60;99.90
35559;DHT22;21661;50.794;-1.066;2024-03-17T13:40:12;14.50;99.90
35559;DHT22;21661;50.794;-1.066;2024-03-17T13:42:44;14.50;99.90
35559;DHT22;21661;50.794;-1.066;2024-03-17T13:45:13;14.50;99.90
35559;DHT22;21661;50.794;-1.066;2024-03-17T13:47:46;14.50;99.90
35559;DHT22;21661;50.794;-1.066;2024-03-17T13:50:12;14.50;99.90
35559;DHT22;21661;50.794;-1.066;2024-03-17T13:52:42;14.50;99.90
35559;DHT22;21661;50.794;-1.066;2024-03-17T13:55:22;14.40;99.90
35559;DHT22;21661;50.794;-1.066;2024-03-17T13:57:54;14.50;99.90
35559;DHT22;21661;50.794;-1.066;2024-03-17T14:00:21;14.60;99.90
35559;DHT22;21661;50.794;-1.066;2024-03-17T14:02:48;14.60;99.90
35559;DHT22;21661;50.794;-1.066;2024-03-17T14:05:16;14.60;99.90
35559;DHT22;21661;50.794;-1.066;2024-03-17T14:07:42;14.70;99.90
35559;DHT22;21661;50.794;-1.066;2024-03-17T14:10:09;14.70;99.90
35559;DHT22;21661;50.794;-1.066;2024-03-17T14:12:36;14.70;99.90
35559;DHT22;21661;50.794;-1.066;2024-03-17T14:15:03;14.80;99.90
35559;DHT22;21661;50.794;-1.066;2024-03-17T14:17:33;14.80;99.90
35559;DHT22;21661;50.794;-1.066;2024-03-17T14:19:59;14.90;99.90
35559;DHT22;21661;50.794;-1.066;2024-03-17T14:22:24;14.90;99.90
35559;DHT22;21661;50.794;-1.066;2024-03-17T14:24:50;14.90;99.90
35559;DHT22;21661;50.794;-1.066;2024-03-17T14:27:16;14.90;99.90
35559;DHT22;21661;50.794;-1.066;2024-03-17T14:29:45;15.00;99.90
35559;DHT22;21661;50.794;-1.066;2024-03-17T14:32:10;15.00;99.90
35559;DHT22;21661;50.794;-1.066;2024-03-17T14:34:37;15.00;99.90
35559;DHT22;21661;50.794;-1.066;2024-03-17T14:37:03;15.00;99.90
35559;DHT22;21661;50.794;-1.066;2024-03-17T14:39:30;15.00;99.90
35559;DHT22;21661;50.794;-1.066;2024-03-17T14:41:55;14.90;99.90
35559;DHT22;21661;50.794;-1.066;2024-03-17T14:44:22;14.90;99.90
35559;DHT22;21661;50.794;-1.066;2024-03-17T14:46:48;14.90;99.90
35559;DHT22;21661;50.794;-1.066;2024-03-17T14:49:17;14.90;99.90
35559;DHT22;21661;50.794;-1.066;2024-03-17T14:51:42;14.80;99.90
35559;DHT22;21661;50.794;-1.066;2024-03-17T14:54:08;14.60;99.90
35559;DHT22;21661;50.794;-1.066;2024-03-17T14:56:35;14.50;99.90
35559;DHT22;21661;50.794;-1.066;2024-03-17T14:59:01;14.50;99.90
35559;DHT22;21661;50.794;-1.066;2024-03-17T15:01:26;14.50;99.90
35559;DHT22;21661;50.794;-1.066;2024-03-17T15:03:55;14.50;99.90
35559;DHT22;21661;50.794;-1.066;2024-03-17T15:06:21;14.60;99.90
35559;DHT22;21661;50.794;-1.066;2024-03-17T15:08:46;14.60;99.90
35559;DHT22;21661;50.794;-1.066;2024-03-17T15:11:12;14.60;99.90
35559;DHT22;21661;50.794;-1.066;2024-03-17T15:13:38;14.60;99.90
35559;DHT22;21661;50.794;-1.066;2024-03-17T15:16:05;14.70;99.90
35559;DHT22;21661;50.794;-1.066;2024-03-17T15:18:34;14.60;99.90
35559;DHT22;21661;50.794;-1.066;2024-03-17T15:21:00;14.50;99.90
35559;DHT22;21661;50.794;-1.066;2024-03-17T15:23:27;14.50;99.90
35559;DHT22;21661;50.794;-1.066;2024-03-17T15:26:04;14.50;99.90
35559;DHT22;21661;50.794;-1.066;2024-03-17T15:28:41;14.50;99.90
35559;DHT22;21661;50.794;-1.066;2024-03-17T15:31:07;14.50;99.90
35559;DHT22;21661;50.794;-1.066;2024-03-17T15:33:34;14.50;99.90
35559;DHT22;21661;50.794;-1.066;2024-03-17T15:36:04;14.40;99.90
35559;DHT22;21661;50.794;-1.066;2024-03-17T15:38:33;14.30;99.90
35559;DHT22;21661;50.794;-1.066;2024-03-17T15:41:09;14.30;99.90
35559;DHT22;21661;50.794;-1.066;2024-03-17T15:43:38;14.20;99.90
35559;DHT22;21661;50.794;-1.066;2024-03-17T15:46:09;14.10;99.90
35559;DHT22;21661;50.794;-1.066;2024-03-17T15:48:38;14.10;99.90